sensor_id;sensor_type;location;lat;lon;timestamp;pressure;altitude;pressure_sealevel;temperature;humidity
68871;BME280;55906;52.278;6.808;2022-10-17T00:00:16;101641.25;;;14.48;83.07
68871;BME280;55906;52.278;6.808;2022-10-17T00:02:43;101648.31;;;14.48;83.20
68871;BME280;55906;52.278;6.808;2022-10-17T00:05:09;101644.75;;;14.47;83.26
68871;BME280;55906;52.278;6.808;2022-10-17T00:07:37;101647.41;;;14.47;83.37
68871;BME280;55906;52.278;6.808;2022-10-17T00:10:04;101641.25;;;14.48;83.36
68871;BME280;55906;52.278;6.808;2022-10-17T00:12:33;101638.63;;;14.50;83.64
68871;BME280;55906;52.278;6.808;2022-10-17T00:15:02;101645.72;;;14.51;83.23
68871;BME280;55906;52.278;6.808;2022-10-17T00:17:28;101643.03;;;14.49;83.39
68871;BME280;55906;52.278;6.808;2022-10-17T00:19:57;101648.34;;;14.49;83.38
68871;BME280;55906;52.278;6.808;2022-10-17T00:22:24;101643.97;;;14.51;83.35
68871;BME280;55906;52.278;6.808;2022-10-17T00:24:50;101626.28;;;14.50;83.76
68871;BME280;55906;52.278;6.808;2022-10-17T00:27:17;101620.06;;;14.48;83.87
68871;BME280;55906;52.278;6.808;2022-10-17T00:29:48;101621.00;;;14.50;84.47
68871;BME280;55906;52.278;6.808;2022-10-17T00:32:15;101608.63;;;14.49;84.87
68871;BME280;55906;52.278;6.808;2022-10-17T00:34:41;101612.97;;;14.47;85.03
68871;BME280;55906;52.278;6.808;2022-10-17T00:37:08;101612.94;;;14.46;85.19
68871;BME280;55906;52.278;6.808;2022-10-17T00:39:34;101621.78;;;14.46;85.44
68871;BME280;55906;52.278;6.808;2022-10-17T00:42:01;101607.69;;;14.47;85.40
68871;BME280;55906;52.278;6.808;2022-10-17T00:45:04;101614.78;;;14.48;86.01
68871;BME280;55906;52.278;6.808;2022-10-17T00:47:32;101612.06;;;14.45;85.07
68871;BME280;55906;52.278;6.808;2022-10-17T00:50:01;101613.81;;;14.45;85.23
68871;BME280;55906;52.278;6.808;2022-10-17T00:52:28;101618.22;;;14.44;85.31
68871;BME280;55906;52.278;6.808;2022-10-17T00:54:58;101603.22;;;14.45;85.44
68871;BME280;55906;52.278;6.808;2022-10-17T00:57:27;101600.56;;;14.45;85.45
68871;BME280;55906;52.278;6.808;2022-10-17T00:59:56;101607.66;;;14.46;85.47
68871;BME280;55906;52.278;6.808;2022-10-17T01:02:25;101602.44;;;14.49;85.35
68871;BME280;55906;52.278;6.808;2022-10-17T01:04:52;101590.94;;;14.48;85.52
68871;BME280;55906;52.278;6.808;2022-10-17T01:07:20;101586.50;;;14.47;85.83
68871;BME280;55906;52.278;6.808;2022-10-17T01:09:47;101591.00;;;14.51;86.19
68871;BME280;55906;52.278;6.808;2022-10-17T01:12:18;101584.84;;;14.52;86.39
68871;BME280;55906;52.278;6.808;2022-10-17T01:14:57;101582.25;;;14.54;86.55
68871;BME280;55906;52.278;6.808;2022-10-17T01:17:34;101573.41;;;14.53;86.87
68871;BME280;55906;52.278;6.808;2022-10-17T01:20:27;101575.22;;;14.56;87.33
68871;BME280;55906;52.278;6.808;2022-10-17T01:23:04;101571.75;;;14.58;86.88
68871;BME280;55906;52.278;6.808;2022-10-17T01:25:39;101577.00;;;14.57;87.11
68871;BME280;55906;52.278;6.808;2022-10-17T01:28:20;101587.66;;;14.60;86.85
68871;BME280;55906;52.278;6.808;2022-10-17T01:31:08;101587.63;;;14.58;87.68
68871;BME280;55906;52.278;6.808;2022-10-17T01:33:45;101596.47;;;14.59;87.36
68871;BME280;55906;52.278;6.808;2022-10-17T01:36:26;101592.97;;;14.60;87.18
68871;BME280;55906;52.278;6.808;2022-10-17T01:38:57;101593.84;;;14.60;86.89
68871;BME280;55906;52.278;6.808;2022-10-17T01:41:33;101588.59;;;14.62;87.55
68871;BME280;55906;52.278;6.808;2022-10-17T01:44:08;101586.84;;;14.62;87.08
68871;BME280;55906;52.278;6.808;2022-10-17T01:46:40;101570.91;;;14.61;87.01
68871;BME280;55906;52.278;6.808;2022-10-17T01:49:10;101573.56;;;14.61;86.75
68871;BME280;55906;52.278;6.808;2022-10-17T01:51:41;101574.41;;;14.60;87.22
68871;BME280;55906;52.278;6.808;2022-10-17T01:54:12;101570.91;;;14.61;87.13
68871;BME280;55906;52.278;6.808;2022-10-17T01:56:41;101567.38;;;14.60;87.37
68871;BME280;55906;52.278;6.808;2022-10-17T01:59:11;101563.84;;;14.61;87.18
68871;BME280;55906;52.278;6.808;2022-10-17T02:01:44;101563.03;;;14.64;88.04
68871;BME280;55906;52.278;6.808;2022-10-17T02:04:11;101548.88;;;14.63;87.52
68871;BME280;55906;52.278;6.808;2022-10-17T02:06:37;101550.66;;;14.63;87.69
68871;BME280;55906;52.278;6.808;2022-10-17T02:09:19;101540.06;;;14.63;88.11
68871;BME280;55906;52.278;6.808;2022-10-17T02:11:54;101538.28;;;14.62;87.96
68871;BME280;55906;52.278;6.808;2022-10-17T02:14:31;101538.31;;;14.63;87.92
68871;BME280;55906;52.278;6.808;2022-10-17T02:17:09;101536.53;;;14.64;87.90
68871;BME280;55906;52.278;6.808;2022-10-17T02:19:54;101542.78;;;14.67;89.59
68871;BME280;55906;52.278;6.808;2022-10-17T02:22:29;101549.88;;;14.68;88.14
68871;BME280;55906;52.278;6.808;2022-10-17T02:25:06;101544.59;;;14.70;88.26
68871;BME280;55906;52.278;6.808;2022-10-17T02:27:41;101549.88;;;14.68;89.47
68871;BME280;55906;52.278;6.808;2022-10-17T02:30:11;101541.06;;;14.69;89.27
68871;BME280;55906;52.278;6.808;2022-10-17T02:32:46;101541.06;;;14.69;89.78
68871;BME280;55906;52.278;6.808;2022-10-17T02:35:16;101548.16;;;14.70;89.78
68871;BME280;55906;52.278;6.808;2022-10-17T02:37:46;101531.44;;;14.73;89.76
68871;BME280;55906;52.278;6.808;2022-10-17T02:40:14;101535.91;;;14.76;90.31
68871;BME280;55906;52.278;6.808;2022-10-17T02:42:43;101532.38;;;14.77;91.65
68871;BME280;55906;52.278;6.808;2022-10-17T02:45:11;101533.34;;;14.80;90.75
68871;BME280;55906;52.278;6.808;2022-10-17T02:47:47;101521.88;;;14.81;90.79
68871;BME280;55906;52.278;6.808;2022-10-17T02:50:16;101526.31;;;14.82;90.85
68871;BME280;55906;52.278;6.808;2022-10-17T02:52:47;101527.22;;;14.84;90.82
68871;BME280;55906;52.278;6.808;2022-10-17T02:55:17;101524.59;;;14.86;90.41
68871;BME280;55906;52.278;6.808;2022-10-17T02:57:47;101529.03;;;14.87;91.10
68871;BME280;55906;52.278;6.808;2022-10-17T03:00:15;101550.28;;;14.90;91.38
68871;BME280;55906;52.278;6.808;2022-10-17T03:02:44;101545.00;;;14.90;90.98
68871;BME280;55906;52.278;6.808;2022-10-17T03:05:17;101541.47;;;14.91;91.36
68871;BME280;55906;52.278;6.808;2022-10-17T03:07:44;101543.28;;;14.92;92.33
68871;BME280;55906;52.278;6.808;2022-10-17T03:10:10;101544.16;;;14.92;91.12
68871;BME280;55906;52.278;6.808;2022-10-17T03:12:37;101540.69;;;14.96;92.76
68871;BME280;55906;52.278;6.808;2022-10-17T03:15:05;101539.84;;;14.97;91.65
68871;BME280;55906;52.278;6.808;2022-10-17T03:17:32;101531.00;;;14.97;93.13
68871;BME280;55906;52.278;6.808;2022-10-17T03:19:58;101535.50;;;15.01;91.51
68871;BME280;55906;52.278;6.808;2022-10-17T03:22:26;101527.44;;;14.95;92.92
68871;BME280;55906;52.278;6.808;2022-10-17T03:24:53;101531.91;;;14.99;92.35
68871;BME280;55906;52.278;6.808;2022-10-17T03:27:19;101531.06;;;15.00;92.09
68871;BME280;55906;52.278;6.808;2022-10-17T03:29:46;101539.91;;;15.00;91.70
68871;BME280;55906;52.278;6.808;2022-10-17T03:32:13;101546.97;;;15.00;91.65
68871;BME280;55906;52.278;6.808;2022-10-17T03:34:39;101539.88;;;14.99;91.52
68871;BME280;55906;52.278;6.808;2022-10-17T03:37:06;101533.66;;;14.97;91.80
68871;BME280;55906;52.278;6.808;2022-10-17T03:39:34;101523.06;;;14.98;91.93
68871;BME280;55906;52.278;6.808;2022-10-17T03:42:01;101531.88;;;14.97;91.73
68871;BME280;55906;52.278;6.808;2022-10-17T03:44:27;101529.16;;;14.93;92.56
68871;BME280;55906;52.278;6.808;2022-10-17T03:46:54;101534.47;;;14.93;92.07
68871;BME280;55906;52.278;6.808;2022-10-17T03:49:20;101530.88;;;14.91;93.01
68871;BME280;55906;52.278;6.808;2022-10-17T03:51:47;101530.84;;;14.89;91.85
68871;BME280;55906;52.278;6.808;2022-10-17T03:54:13;101537.91;;;14.89;92.42
68871;BME280;55906;52.278;6.808;2022-10-17T03:56:41;101539.66;;;14.88;92.38
68871;BME280;55906;52.278;6.808;2022-10-17T03:59:11;101538.78;;;14.88;92.33
68871;BME280;55906;52.278;6.808;2022-10-17T04:01:38;101540.53;;;14.87;92.20
68871;BME280;55906;52.278;6.808;2022-10-17T04:04:05;101543.19;;;14.87;92.77
68871;BME280;55906;52.278;6.808;2022-10-17T04:06:31;101540.50;;;14.86;93.93
68871;BME280;55906;52.278;6.808;2022-10-17T04:08:58;101549.34;;;14.86;93.25
68871;BME280;55906;52.278;6.808;2022-10-17T04:11:25;101550.19;;;14.84;93.76
68871;BME280;55906;52.278;6.808;2022-10-17T04:13:54;101551.09;;;14.86;93.84
68871;BME280;55906;52.278;6.808;2022-10-17T04:16:21;101550.19;;;14.84;93.50
68871;BME280;55906;52.278;6.808;2022-10-17T04:18:52;101545.72;;;14.81;95.01
68871;BME280;55906;52.278;6.808;2022-10-17T04:21:18;101547.53;;;14.84;94.05
68871;BME280;55906;52.278;6.808;2022-10-17T04:23:45;101549.31;;;14.85;93.64
68871;BME280;55906;52.278;6.808;2022-10-17T04:26:12;101543.97;;;14.83;94.45
68871;BME280;55906;52.278;6.808;2022-10-17T04:28:38;101546.72;;;14.88;95.20
68871;BME280;55906;52.278;6.808;2022-10-17T04:31:09;101536.97;;;14.85;95.15
68871;BME280;55906;52.278;6.808;2022-10-17T04:33:37;101543.16;;;14.86;95.72
68871;BME280;55906;52.278;6.808;2022-10-17T04:36:05;101545.84;;;14.87;96.05
68871;BME280;55906;52.278;6.808;2022-10-17T04:38:33;101535.22;;;14.87;95.11
68871;BME280;55906;52.278;6.808;2022-10-17T04:41:01;101533.53;;;14.91;95.37
68871;BME280;55906;52.278;6.808;2022-10-17T04:43:28;101521.19;;;14.91;95.47
68871;BME280;55906;52.278;6.808;2022-10-17T04:45:56;101530.06;;;14.95;95.94
68871;BME280;55906;52.278;6.808;2022-10-17T04:48:24;101519.47;;;14.95;95.45
68871;BME280;55906;52.278;6.808;2022-10-17T04:50:53;101520.34;;;14.94;95.90
68871;BME280;55906;52.278;6.808;2022-10-17T04:53:20;101519.50;;;14.96;95.40
68871;BME280;55906;52.278;6.808;2022-10-17T04:55:47;101525.69;;;14.97;96.56
68871;BME280;55906;52.278;6.808;2022-10-17T04:58:14;101527.47;;;14.98;95.78
68871;BME280;55906;52.278;6.808;2022-10-17T05:00:41;101524.91;;;15.01;95.80
68871;BME280;55906;52.278;6.808;2022-10-17T05:03:07;101527.53;;;15.01;95.29
68871;BME280;55906;52.278;6.808;2022-10-17T05:05:37;101528.44;;;15.01;96.02
68871;BME280;55906;52.278;6.808;2022-10-17T05:08:04;101541.72;;;15.03;95.86
68871;BME280;55906;52.278;6.808;2022-10-17T05:10:35;101537.34;;;15.05;95.70
68871;BME280;55906;52.278;6.808;2022-10-17T05:13:02;101540.03;;;15.08;95.18
68871;BME280;55906;52.278;6.808;2022-10-17T05:15:29;101527.59;;;15.04;95.32
68871;BME280;55906;52.278;6.808;2022-10-17T05:17:55;101531.16;;;15.06;95.12
68871;BME280;55906;52.278;6.808;2022-10-17T05:20:23;101530.28;;;15.05;95.86
68871;BME280;55906;52.278;6.808;2022-10-17T05:22:51;101538.25;;;15.07;95.09
68871;BME280;55906;52.278;6.808;2022-10-17T05:25:18;101544.47;;;15.09;96.67
68871;BME280;55906;52.278;6.808;2022-10-17T05:27:44;101559.63;;;15.16;95.65
68871;BME280;55906;52.278;6.808;2022-10-17T05:30:11;101561.44;;;15.19;96.71
68871;BME280;55906;52.278;6.808;2022-10-17T05:32:38;101554.38;;;15.19;96.09
68871;BME280;55906;52.278;6.808;2022-10-17T05:35:05;101549.16;;;15.24;96.23
68871;BME280;55906;52.278;6.808;2022-10-17T05:37:32;101556.31;;;15.29;95.78
68871;BME280;55906;52.278;6.808;2022-10-17T05:40:00;101562.56;;;15.33;96.54
68871;BME280;55906;52.278;6.808;2022-10-17T05:42:27;101569.72;;;15.37;95.79
68871;BME280;55906;52.278;6.808;2022-10-17T05:44:53;101571.50;;;15.38;95.78
68871;BME280;55906;52.278;6.808;2022-10-17T05:47:20;101573.34;;;15.42;95.89
68871;BME280;55906;52.278;6.808;2022-10-17T05:49:47;101568.16;;;15.50;95.73
68871;BME280;55906;52.278;6.808;2022-10-17T05:52:13;101566.41;;;15.50;95.71
68871;BME280;55906;52.278;6.808;2022-10-17T05:54:40;101576.16;;;15.53;95.32
68871;BME280;55906;52.278;6.808;2022-10-17T05:57:08;101567.38;;;15.55;95.62
68871;BME280;55906;52.278;6.808;2022-10-17T05:59:34;101572.75;;;15.58;95.28
68871;BME280;55906;52.278;6.808;2022-10-17T06:02:01;101576.41;;;15.62;95.24
68871;BME280;55906;52.278;6.808;2022-10-17T06:04:28;101593.38;;;15.73;95.25
68871;BME280;55906;52.278;6.808;2022-10-17T06:06:54;101584.59;;;15.77;94.96
68871;BME280;55906;52.278;6.808;2022-10-17T06:09:21;101563.47;;;15.83;95.27
68871;BME280;55906;52.278;6.808;2022-10-17T06:11:48;101570.63;;;15.89;94.44
68871;BME280;55906;52.278;6.808;2022-10-17T06:14:16;101579.56;;;15.94;94.73
68871;BME280;55906;52.278;6.808;2022-10-17T06:16:42;101577.91;;;16.02;94.67
68871;BME280;55906;52.278;6.808;2022-10-17T06:19:09;101581.50;;;16.06;94.30
68871;BME280;55906;52.278;6.808;2022-10-17T06:21:36;101597.53;;;16.12;94.13
68871;BME280;55906;52.278;6.808;2022-10-17T06:24:03;101599.34;;;16.16;93.69
68871;BME280;55906;52.278;6.808;2022-10-17T06:26:29;101603.88;;;16.21;93.53
68871;BME280;55906;52.278;6.808;2022-10-17T06:28:56;101603.91;;;16.24;93.38
68871;BME280;55906;52.278;6.808;2022-10-17T06:31:24;101611.06;;;16.30;93.13
68871;BME280;55906;52.278;6.808;2022-10-17T06:33:51;101607.53;;;16.29;93.02
68871;BME280;55906;52.278;6.808;2022-10-17T06:36:17;101612.09;;;16.40;92.97
68871;BME280;55906;52.278;6.808;2022-10-17T06:38:44;101616.56;;;16.42;92.41
68871;BME280;55906;52.278;6.808;2022-10-17T06:41:13;101613.16;;;16.54;91.92
68871;BME280;55906;52.278;6.808;2022-10-17T06:43:41;101606.13;;;16.57;91.78
68871;BME280;55906;52.278;6.808;2022-10-17T06:46:10;101605.34;;;16.64;91.26
68871;BME280;55906;52.278;6.808;2022-10-17T06:48:38;101599.25;;;16.72;90.93
68871;BME280;55906;52.278;6.808;2022-10-17T06:51:06;101609.13;;;16.80;90.36
68871;BME280;55906;52.278;6.808;2022-10-17T06:53:34;101605.66;;;16.87;89.93
68871;BME280;55906;52.278;6.808;2022-10-17T06:56:01;101607.47;;;16.90;89.85
68871;BME280;55906;52.278;6.808;2022-10-17T06:58:30;101612.00;;;16.97;89.40
68871;BME280;55906;52.278;6.808;2022-10-17T07:01:00;101612.06;;;17.03;89.35
68871;BME280;55906;52.278;6.808;2022-10-17T07:03:27;101610.44;;;17.14;88.52
68871;BME280;55906;52.278;6.808;2022-10-17T07:05:56;101612.31;;;17.24;88.11
68871;BME280;55906;52.278;6.808;2022-10-17T07:08:23;101612.41;;;17.35;87.81
68871;BME280;55906;52.278;6.808;2022-10-17T07:10:50;101612.56;;;17.50;87.02
68871;BME280;55906;52.278;6.808;2022-10-17T07:13:17;101614.47;;;17.65;86.54
68871;BME280;55906;52.278;6.808;2022-10-17T07:15:44;101612.00;;;17.83;85.38
68871;BME280;55906;52.278;6.808;2022-10-17T07:18:11;101618.34;;;18.02;84.91
68871;BME280;55906;52.278;6.808;2022-10-17T07:20:38;101614.88;;;18.11;84.52
68871;BME280;55906;52.278;6.808;2022-10-17T07:23:06;101625.56;;;18.17;83.66
68871;BME280;55906;52.278;6.808;2022-10-17T07:25:33;101633.66;;;18.28;83.20
68871;BME280;55906;52.278;6.808;2022-10-17T07:28:00;101638.16;;;18.36;82.58
68871;BME280;55906;52.278;6.808;2022-10-17T07:30:28;101634.66;;;18.46;82.69
68871;BME280;55906;52.278;6.808;2022-10-17T07:32:54;101636.44;;;18.49;82.88
68871;BME280;55906;52.278;6.808;2022-10-17T07:35:21;101645.38;;;18.59;81.61
68871;BME280;55906;52.278;6.808;2022-10-17T07:37:48;101634.78;;;18.65;81.07
68871;BME280;55906;52.278;6.808;2022-10-17T07:40:16;101642.84;;;18.72;80.75
68871;BME280;55906;52.278;6.808;2022-10-17T07:42:42;101649.06;;;18.74;80.58
68871;BME280;55906;52.278;6.808;2022-10-17T07:45:09;101638.41;;;18.79;80.14
68871;BME280;55906;52.278;6.808;2022-10-17T07:47:36;101630.47;;;18.93;79.53
68871;BME280;55906;52.278;6.808;2022-10-17T07:50:04;101636.69;;;18.93;79.57
68871;BME280;55906;52.278;6.808;2022-10-17T07:52:31;101643.81;;;18.97;79.35
68871;BME280;55906;52.278;6.808;2022-10-17T07:54:58;101643.84;;;19.02;79.38
68871;BME280;55906;52.278;6.808;2022-10-17T07:57:26;101648.31;;;19.13;78.49
68871;BME280;55906;52.278;6.808;2022-10-17T07:59:52;101652.78;;;19.21;78.01
68871;BME280;55906;52.278;6.808;2022-10-17T08:02:21;101650.16;;;19.28;77.94
68871;BME280;55906;52.278;6.808;2022-10-17T08:04:48;101656.41;;;19.38;78.00
68871;BME280;55906;52.278;6.808;2022-10-17T08:07:15;101653.84;;;19.68;76.45
68871;BME280;55906;52.278;6.808;2022-10-17T08:09:42;101657.41;;;19.99;75.98
68871;BME280;55906;52.278;6.808;2022-10-17T08:12:09;101662.75;;;20.24;74.89
68871;BME280;55906;52.278;6.808;2022-10-17T08:14:37;101663.59;;;20.64;74.24
68871;BME280;55906;52.278;6.808;2022-10-17T08:17:04;101654.63;;;20.77;72.23
68871;BME280;55906;52.278;6.808;2022-10-17T08:19:31;101666.25;;;20.84;71.44
68871;BME280;55906;52.278;6.808;2022-10-17T08:21:57;101662.66;;;20.85;71.49
68871;BME280;55906;52.278;6.808;2022-10-17T08:24:25;101666.25;;;20.70;70.94
68871;BME280;55906;52.278;6.808;2022-10-17T08:26:51;101661.81;;;20.66;71.23
68871;BME280;55906;52.278;6.808;2022-10-17T08:29:19;101666.28;;;20.62;71.45
68871;BME280;55906;52.278;6.808;2022-10-17T08:31:47;101671.63;;;20.58;71.58
68871;BME280;55906;52.278;6.808;2022-10-17T08:34:13;101680.53;;;20.57;71.36
68871;BME280;55906;52.278;6.808;2022-10-17T08:36:41;101683.25;;;20.44;71.46
68871;BME280;55906;52.278;6.808;2022-10-17T08:39:07;101689.47;;;20.27;72.28
68871;BME280;55906;52.278;6.808;2022-10-17T08:41:50;101704.63;;;20.14;72.85
68871;BME280;55906;52.278;6.808;2022-10-17T08:44:27;101695.72;;;20.00;73.60
68871;BME280;55906;52.278;6.808;2022-10-17T08:47:00;101692.16;;;19.90;73.91
68871;BME280;55906;52.278;6.808;2022-10-17T08:49:38;101693.91;;;19.77;74.44
68871;BME280;55906;52.278;6.808;2022-10-17T08:52:10;101697.47;;;19.70;74.89
68871;BME280;55906;52.278;6.808;2022-10-17T08:54:43;101700.13;;;19.64;75.30
68871;BME280;55906;52.278;6.808;2022-10-17T08:57:12;101723.25;;;19.64;75.47
68871;BME280;55906;52.278;6.808;2022-10-17T08:59:40;101731.28;;;19.65;75.21
68871;BME280;55906;52.278;6.808;2022-10-17T09:02:21;101743.72;;;19.60;75.69
68871;BME280;55906;52.278;6.808;2022-10-17T09:05:14;101759.72;;;19.57;76.07
68871;BME280;55906;52.278;6.808;2022-10-17T09:07:51;101752.50;;;19.44;76.13
68871;BME280;55906;52.278;6.808;2022-10-17T09:10:24;101762.28;;;19.42;76.43
68871;BME280;55906;52.278;6.808;2022-10-17T09:13:03;101753.38;;;19.40;76.80
68871;BME280;55906;52.278;6.808;2022-10-17T09:15:41;101743.59;;;19.39;76.80
68871;BME280;55906;52.278;6.808;2022-10-17T09:18:15;101743.59;;;19.42;76.86
68871;BME280;55906;52.278;6.808;2022-10-17T09:20:45;101753.38;;;19.44;76.92
68871;BME280;55906;52.278;6.808;2022-10-17T09:23:17;101756.06;;;19.46;76.83
68871;BME280;55906;52.278;6.808;2022-10-17T09:25:48;101756.97;;;19.49;76.85
68871;BME280;55906;52.278;6.808;2022-10-17T09:28:18;101765.84;;;19.42;78.06
68871;BME280;55906;52.278;6.808;2022-10-17T09:30:49;101770.22;;;19.30;78.79
68871;BME280;55906;52.278;6.808;2022-10-17T09:33:25;101775.53;;;19.24;78.62
68871;BME280;55906;52.278;6.808;2022-10-17T09:35:55;101786.16;;;19.14;79.34
68871;BME280;55906;52.278;6.808;2022-10-17T09:38:36;101803.88;;;19.03;79.64
68871;BME280;55906;52.278;6.808;2022-10-17T09:41:12;101818.94;;;18.95;79.84
68871;BME280;55906;52.278;6.808;2022-10-17T09:43:40;101824.25;;;18.92;80.20
68871;BME280;55906;52.278;6.808;2022-10-17T09:46:09;101821.53;;;18.83;80.44
68871;BME280;55906;52.278;6.808;2022-10-17T09:48:43;101821.50;;;18.80;81.09
68871;BME280;55906;52.278;6.808;2022-10-17T09:51:12;101825.03;;;18.76;80.94
68871;BME280;55906;52.278;6.808;2022-10-17T09:53:40;101825.88;;;18.72;81.08
68871;BME280;55906;52.278;6.808;2022-10-17T09:56:10;101835.66;;;18.70;81.51
68871;BME280;55906;52.278;6.808;2022-10-17T09:58:39;101816.09;;;18.68;81.15
68871;BME280;55906;52.278;6.808;2022-10-17T10:01:15;101816.09;;;18.71;81.06
68871;BME280;55906;52.278;6.808;2022-10-17T10:03:45;101805.41;;;18.68;81.52
68871;BME280;55906;52.278;6.808;2022-10-17T10:06:13;101810.78;;;18.71;81.06
68871;BME280;55906;52.278;6.808;2022-10-17T10:08:48;101823.19;;;18.69;81.20
68871;BME280;55906;52.278;6.808;2022-10-17T10:11:16;101829.38;;;18.63;81.71
68871;BME280;55906;52.278;6.808;2022-10-17T10:13:43;101831.16;;;18.63;81.63
68871;BME280;55906;52.278;6.808;2022-10-17T10:16:20;101835.59;;;18.62;82.29
68871;BME280;55906;52.278;6.808;2022-10-17T10:18:51;101847.03;;;18.55;82.63
68871;BME280;55906;52.278;6.808;2022-10-17T10:21:19;101863.84;;;18.48;83.11
68871;BME280;55906;52.278;6.808;2022-10-17T10:24:03;101869.09;;;18.39;84.80
68871;BME280;55906;52.278;6.808;2022-10-17T10:26:34;101894.75;;;18.28;85.62
68871;BME280;55906;52.278;6.808;2022-10-17T10:29:04;101930.03;;;18.11;87.35
68871;BME280;55906;52.278;6.808;2022-10-17T10:31:34;101927.19;;;17.96;88.50
68871;BME280;55906;52.278;6.808;2022-10-17T10:34:13;101931.38;;;17.77;90.97
68871;BME280;55906;52.278;6.808;2022-10-17T10:36:55;101942.63;;;17.59;92.43
68871;BME280;55906;52.278;6.808;2022-10-17T10:39:31;101955.72;;;17.44;93.57
68871;BME280;55906;52.278;6.808;2022-10-17T10:41:59;101914.75;;;17.33;94.09
68871;BME280;55906;52.278;6.808;2022-10-17T10:44:28;101885.44;;;17.28;94.96
68871;BME280;55906;52.278;6.808;2022-10-17T10:47:14;101853.41;;;17.22;96.28
68871;BME280;55906;52.278;6.808;2022-10-17T10:49:43;101839.22;;;17.22;95.12
68871;BME280;55906;52.278;6.808;2022-10-17T10:52:17;101813.59;;;17.27;94.87
68871;BME280;55906;52.278;6.808;2022-10-17T10:54:54;101825.13;;;17.27;96.92
68871;BME280;55906;52.278;6.808;2022-10-17T10:57:27;101872.13;;;17.28;96.22
68871;BME280;55906;52.278;6.808;2022-10-17T11:00:00;101877.41;;;17.27;97.20
68871;BME280;55906;52.278;6.808;2022-10-17T11:02:34;101873.88;;;17.26;98.30
68871;BME280;55906;52.278;6.808;2022-10-17T11:05:09;101880.94;;;17.24;97.88
68871;BME280;55906;52.278;6.808;2022-10-17T11:07:40;101885.38;;;17.25;98.30
68871;BME280;55906;52.278;6.808;2022-10-17T11:10:23;101895.19;;;17.30;98.30
68871;BME280;55906;52.278;6.808;2022-10-17T11:13:02;101882.75;;;17.27;98.26
68871;BME280;55906;52.278;6.808;2022-10-17T11:15:34;101890.75;;;17.28;97.62
68871;BME280;55906;52.278;6.808;2022-10-17T11:18:04;101892.56;;;17.31;98.03
68871;BME280;55906;52.278;6.808;2022-10-17T11:20:38;101884.59;;;17.33;98.60
68871;BME280;55906;52.278;6.808;2022-10-17T11:23:16;101885.56;;;17.39;98.20
68871;BME280;55906;52.278;6.808;2022-10-17T11:25:47;101892.63;;;17.37;98.37
68871;BME280;55906;52.278;6.808;2022-10-17T11:28:15;101893.47;;;17.33;98.58
68871;BME280;55906;52.278;6.808;2022-10-17T11:30:49;101917.38;;;17.32;98.69
68871;BME280;55906;52.278;6.808;2022-10-17T11:33:23;101916.47;;;17.30;98.44
68871;BME280;55906;52.278;6.808;2022-10-17T11:35:56;101924.38;;;17.25;98.74
68871;BME280;55906;52.278;6.808;2022-10-17T11:38:31;101930.63;;;17.27;98.89
68871;BME280;55906;52.278;6.808;2022-10-17T11:41:01;101930.53;;;17.22;99.14
68871;BME280;55906;52.278;6.808;2022-10-17T11:43:33;101923.50;;;17.24;99.34
68871;BME280;55906;52.278;6.808;2022-10-17T11:46:05;101905.75;;;17.23;98.75
68871;BME280;55906;52.278;6.808;2022-10-17T11:48:40;101909.44;;;17.35;98.62
68871;BME280;55906;52.278;6.808;2022-10-17T11:51:12;101912.25;;;17.44;98.26
68871;BME280;55906;52.278;6.808;2022-10-17T11:53:45;101922.16;;;17.54;98.58
68871;BME280;55906;52.278;6.808;2022-10-17T11:56:17;101932.00;;;17.61;98.39
68871;BME280;55906;52.278;6.808;2022-10-17T11:58:49;101933.03;;;17.68;98.33
68871;BME280;55906;52.278;6.808;2022-10-17T12:01:23;101937.53;;;17.73;97.81
68871;BME280;55906;52.278;6.808;2022-10-17T12:04:06;101941.19;;;17.80;97.77
68871;BME280;55906;52.278;6.808;2022-10-17T12:06:51;101938.59;;;17.86;96.94
68871;BME280;55906;52.278;6.808;2022-10-17T12:09:25;101941.28;;;17.87;96.56
68871;BME280;55906;52.278;6.808;2022-10-17T12:11:56;101922.66;;;17.89;95.98
68871;BME280;55906;52.278;6.808;2022-10-17T12:14:41;101934.25;;;17.92;95.66
68871;BME280;55906;52.278;6.808;2022-10-17T12:17:26;101944.13;;;18.01;95.47
68871;BME280;55906;52.278;6.808;2022-10-17T12:20:16;101934.41;;;18.05;95.49
68871;BME280;55906;52.278;6.808;2022-10-17T12:22:52;101949.47;;;18.03;95.22
68871;BME280;55906;52.278;6.808;2022-10-17T12:25:22;101957.44;;;18.01;95.27
68871;BME280;55906;52.278;6.808;2022-10-17T12:28:11;101946.78;;;18.01;94.87
68871;BME280;55906;52.278;6.808;2022-10-17T12:30:49;101955.59;;;17.96;94.96
68871;BME280;55906;52.278;6.808;2022-10-17T12:33:18;101958.25;;;17.96;95.12
68871;BME280;55906;52.278;6.808;2022-10-17T12:35:47;101961.78;;;17.95;94.97
68871;BME280;55906;52.278;6.808;2022-10-17T12:38:33;101968.81;;;17.89;94.98
68871;BME280;55906;52.278;6.808;2022-10-17T12:41:02;101971.44;;;17.86;95.16
68871;BME280;55906;52.278;6.808;2022-10-17T12:43:56;101961.69;;;17.87;95.20
68871;BME280;55906;52.278;6.808;2022-10-17T12:46:55;101965.25;;;17.89;94.68
68871;BME280;55906;52.278;6.808;2022-10-17T12:49:46;101967.00;;;17.87;95.21
68871;BME280;55906;52.278;6.808;2022-10-17T12:52:22;101962.47;;;17.80;95.16
68871;BME280;55906;52.278;6.808;2022-10-17T12:55:06;101980.25;;;17.82;95.33
68871;BME280;55906;52.278;6.808;2022-10-17T12:57:41;101975.78;;;17.80;95.22
68871;BME280;55906;52.278;6.808;2022-10-17T13:00:17;101980.16;;;17.75;95.65
68871;BME280;55906;52.278;6.808;2022-10-17T13:02:45;101986.34;;;17.74;96.02
68871;BME280;55906;52.278;6.808;2022-10-17T13:05:15;101978.38;;;17.75;95.70
68871;BME280;55906;52.278;6.808;2022-10-17T13:07:45;101984.63;;;17.77;95.94